Time;durP1;ratioP1;P1;durP2;ratioP2;P2;SDS_P1;SDS_P2;PMS_P1;PMS_P2;Temp;Humidity;BMP_temperature;BMP_pressure;BME280_temperature;BME280_humidity;BME280_pressure;Samples;Min_cycle;Max_cycle;Signal;HPM_P1;HPM_P2
2022/10/08 00:06:27;;;;;;;12.90;10.50;;;;;;;11.67;81.74;99768.18;436679;1282;142482;-63
2022/10/08 00:16:35;;;;;;;11.50;10.30;;;;;;;11.45;81.90;99765.42;436794;1279;142474;-62
2022/10/08 00:26:40;;;;;;;12.90;11.10;;;;;;;11.21;82.29;99750.86;436006;1274;141678;-63
2022/10/08 00:36:52;;;;;;;16.10;12.10;;;;;;;11.02;82.69;99741.20;436671;1281;143809;-63
2022/10/08 00:46:58;;;;;;;13.20;11.60;;;;;;;10.76;82.72;99729.12;436713;1274;143313;-63
2022/10/08 00:57:05;;;;;;;12.20;11.00;;;;;;;10.51;83.06;99718.55;429600;1281;142453;-63
2022/10/08 01:07:17;;;;;;;12.80;11.50;;;;;;;10.33;83.75;99717.34;436621;1283;156248;-61
2022/10/08 01:17:30;;;;;;;15.10;12.60;;;;;;;10.34;84.35;99700.02;435992;1282;142680;-62
2022/10/08 01:27:41;;;;;;;15.60;12.70;;;;;;;10.46;84.83;99695.60;436678;1275;142964;-64
2022/10/08 01:37:48;;;;;;;16.70;13.70;;;;;;;10.65;85.06;99690.95;436685;1281;144343;-62
2022/10/08 01:47:56;;;;;;;17.10;12.40;;;;;;;10.84;85.39;99682.36;435885;1275;144302;-62
2022/10/08 01:58:06;;;;;;;14.90;11.40;;;;;;;10.96;85.14;99671.83;431680;1281;142470;-63
2022/10/08 02:08:12;;;;;;;14.70;12.80;;;;;;;10.99;85.17;99664.66;435927;1281;142789;-63
2022/10/08 02:18:22;;;;;;;15.10;13.50;;;;;;;11.02;85.39;99655.69;436620;1276;142734;-62
2022/10/08 02:28:34;;;;;;;15.10;12.80;;;;;;;11.16;85.62;99650.08;436704;1282;142106;-63
2022/10/08 02:38:45;;;;;;;14.80;13.30;;;;;;;11.25;85.58;99645.98;435896;1282;142718;-63
2022/10/08 02:48:56;;;;;;;16.40;11.90;;;;;;;11.25;85.68;99645.61;436604;1281;142858;-62
2022/10/08 02:59:03;;;;;;;17.10;13.20;;;;;;;11.31;86.04;99640.35;430122;1282;142404;-62
2022/10/08 03:09:14;;;;;;;14.80;13.20;;;;;;;11.33;86.28;99637.55;426065;1279;209270;-61
2022/10/08 03:19:20;;;;;;;13.80;12.40;;;;;;;11.30;86.27;99639.51;436677;1288;143311;-62
2022/10/08 03:29:26;;;;;;;14.50;12.20;;;;;;;11.33;86.54;99639.15;435744;1289;142710;-62
2022/10/08 03:39:32;;;;;;;15.80;12.80;;;;;;;11.36;86.49;99640.17;436696;1282;142867;-62
2022/10/08 03:49:37;;;;;;;15.90;13.20;;;;;;;11.40;86.53;99632.52;436666;1285;142969;-62
2022/10/08 03:59:43;;;;;;;14.40;12.90;;;;;;;11.48;86.77;99627.63;433229;1279;185533;-62
2022/10/08 04:09:48;;;;;;;14.90;13.50;;;;;;;11.60;87.10;99626.66;436716;1284;143102;-65
2022/10/08 04:19:56;;;;;;;15.30;13.50;;;;;;;11.72;87.01;99632.88;436712;1288;144113;-62
2022/10/08 04:30:01;;;;;;;14.90;13.40;;;;;;;11.79;86.92;99630.95;435991;1282;143146;-62
2022/10/08 04:40:09;;;;;;;17.50;14.40;;;;;;;11.90;86.99;99628.99;436686;1281;143014;-61
2022/10/08 04:50:14;;;;;;;17.20;14.00;;;;;;;12.00;86.96;99627.27;435955;1284;144517;-62
2022/10/08 05:00:20;;;;;;;16.20;13.20;;;;;;;12.10;86.74;99625.75;434307;1274;145955;-62
2022/10/08 05:10:26;;;;;;;15.30;12.70;;;;;;;12.17;86.60;99628.23;436691;1276;143216;-62
2022/10/08 05:20:31;;;;;;;13.20;11.80;;;;;;;12.25;86.46;99627.36;435996;1281;143222;-62
2022/10/08 05:30:37;;;;;;;15.40;12.00;;;;;;;12.34;86.47;99626.19;436680;1274;143029;-62
2022/10/08 05:40:43;;;;;;;13.20;11.90;;;;;;;12.51;86.13;99627.09;436695;1281;142210;-62
2022/10/08 05:50:48;;;;;;;15.30;11.40;;;;;;;12.72;85.75;99633.21;435916;1287;142917;-63
2022/10/08 06:00:59;;;;;;;13.80;12.20;;;;;;;12.93;85.35;99636.17;429815;1281;142203;-62
2022/10/08 06:11:06;;;;;;;10.90;9.90;;;;;;;13.08;84.95;99642.30;436730;1282;143005;-62
2022/10/08 06:21:13;;;;;;;12.60;11.30;;;;;;;13.23;84.58;99642.08;436277;1282;146326;-64
2022/10/08 06:31:20;;;;;;;15.00;12.00;;;;;;;13.50;84.14;99641.19;436792;1281;141584;-63
2022/10/08 06:41:29;;;;;;;13.10;10.30;;;;;;;13.83;83.56;99638.20;435976;1282;142754;-63
2022/10/08 06:51:34;;;;;;;23.70;11.10;;;;;;;14.06;82.85;99648.04;436735;1281;142722;-63
2022/10/08 07:01:40;;;;;;;11.00;9.90;;;;;;;14.56;82.17;99641.70;431897;1282;143085;-62
2022/10/08 07:11:46;;;;;;;10.60;9.50;;;;;;;15.18;80.99;99639.20;435984;1288;144571;-62
2022/10/08 07:21:52;;;;;;;12.90;8.80;;;;;;;15.58;79.82;99636.04;436652;1281;142725;-62
2022/10/08 07:32:02;;;;;;;9.80;8.80;;;;;;;15.95;79.01;99634.95;436714;1282;142104;-63
2022/10/08 07:42:08;;;;;;;8.80;7.60;;;;;;;16.62;78.02;99622.20;435958;1288;143605;-62
2022/10/08 07:52:13;;;;;;;9.90;8.30;;;;;;;19.47;75.18;99607.52;436721;1280;141661;-62
2022/10/08 08:02:19;;;;;;;7.90;6.30;;;;;;;24.20;69.24;99600.60;431050;1274;142823;-62
2022/10/08 08:12:24;;;;;;;5.90;5.30;;;;;;;29.35;59.82;99599.86;436743;1289;143393;-62
2022/10/08 08:22:30;;;;;;;7.10;5.80;;;;;;;30.64;52.62;99606.59;436738;1281;141299;-62
2022/10/08 08:32:36;;;;;;;11.00;6.50;;;;;;;29.80;49.59;99601.76;436002;1287;141665;-62
2022/10/08 08:42:43;;;;;;;;;;;;;;;29.35;47.84;99604.11;436711;1286;144921;-62
2022/10/08 08:52:50;;;;;;;6.80;6.00;;;;;;;28.32;46.75;99607.32;436956;1286;129915;-62
2022/10/08 09:02:58;;;;;;;6.70;6.00;;;;;;;27.09;47.35;99605.29;426288;1283;144479;-62
2022/10/08 09:13:11;;;;;;;7.60;6.20;;;;;;;24.77;48.74;99606.92;436815;1281;141692;-62
2022/10/08 09:23:19;;;;;;;10.70;6.30;;;;;;;24.16;50.39;99599.50;436088;1280;145936;-62
2022/10/08 09:33:30;;;;;;;10.40;7.20;;;;;;;24.00;50.89;99593.71;436800;1285;143665;-62
2022/10/08 09:43:37;;;;;;;10.80;7.60;;;;;;;23.63;51.01;99590.64;436775;1287;141860;-62
2022/10/08 09:53:45;;;;;;;7.30;6.60;;;;;;;23.36;51.35;99585.02;436077;1284;141772;-62
2022/10/08 10:03:53;;;;;;;10.10;7.00;;;;;;;23.18;51.88;99574.79;424538;1281;141839;-61
2022/10/08 10:14:05;;;;;;;8.50;6.60;;;;;;;22.91;51.84;99562.09;424999;1281;141115;-62
2022/10/08 10:24:37;;;;;;;8.10;5.70;;;;;;;22.07;52.53;99559.08;436238;1280;192760;-62
2022/10/08 10:34:47;;;;;;;13.80;7.60;;;;;;;20.90;53.69;99561.59;436665;1284;146047;-62
2022/10/08 10:44:56;;;;;;;8.20;7.40;;;;;;;20.35;55.20;99559.91;436050;1279;143615;-62
2022/10/08 10:55:17;;;;;;;12.70;7.00;;;;;;;20.77;55.97;99554.75;436810;1274;142485;-63
2022/10/08 11:05:25;;;;;;;10.10;6.50;;;;;;;20.90;55.78;99539.84;423347;1275;144906;-63
2022/10/08 11:15:37;;;;;;;6.40;5.80;;;;;;;20.42;56.31;99534.06;436794;1288;142147;-63
2022/10/08 11:25:52;;;;;;;10.90;7.40;;;;;;;20.35;56.50;99518.79;436767;1281;141833;-63
2022/10/08 11:36:28;;;;;;;7.70;7.00;;;;;;;20.64;56.82;99506.29;436234;1282;207418;-61
2022/10/08 11:46:37;;;;;;;11.60;8.30;;;;;;;20.83;56.63;99507.84;436807;1282;144360;-62
2022/10/08 11:56:46;;;;;;;9.00;7.50;;;;;;;20.86;56.39;99501.27;436090;1281;143751;-62
2022/10/08 12:07:04;;;;;;;8.00;7.20;;;;;;;20.78;56.53;99499.88;424255;1281;142115;-62
2022/10/08 12:17:09;;;;;;;;;;;;;;;20.58;56.40;99489.70;436127;1281;142733;-64
2022/10/08 12:27:26;;;;;;;13.20;6.70;;;;;;;20.11;56.62;99485.81;436945;1281;128509;-63
2022/10/08 12:37:55;;;;;;;8.30;7.00;;;;;;;19.66;57.36;99484.08;436795;1282;141256;-62
2022/10/08 12:48:04;;;;;;;11.30;7.20;;;;;;;19.56;58.24;99469.05;436034;1282;142014;-63
2022/10/08 12:58:19;;;;;;;7.40;6.70;;;;;;;19.94;58.18;99463.98;435873;1282;141447;-62
2022/10/08 13:08:34;;;;;;;11.30;5.60;;;;;;;20.02;57.35;99451.63;434949;1282;143083;-62
2022/10/08 13:18:42;;;;;;;7.10;5.60;;;;;;;19.73;57.22;99450.98;436820;1289;141007;-61
2022/10/08 13:28:46;;;;;;;;;;;;;;;19.73;57.32;99445.83;436813;1288;141920;-62
2022/10/08 13:39:05;;;;;;;9.20;6.90;;;;;;;19.59;57.47;99445.14;436272;1281;129457;-62
2022/10/08 13:49:21;;;;;;;6.80;5.30;;;;;;;19.43;57.87;99442.41;436816;1288;141475;-63
2022/10/08 13:59:26;;;;;;;9.90;6.70;;;;;;;19.22;58.03;99444.38;433330;1282;143165;-62
2022/10/08 14:09:35;;;;;;;10.70;6.60;;;;;;;18.94;58.73;99441.63;422884;1274;141082;-63
2022/10/08 14:19:41;;;;;;;7.90;6.80;;;;;;;18.46;59.87;99440.17;436805;1281;142385;-62
2022/10/08 14:29:46;;;;;;;10.40;8.40;;;;;;;18.11;60.73;99434.48;435959;1283;145492;-61
2022/10/08 14:39:52;;;;;;;9.60;7.00;;;;;;;17.76;61.49;99435.34;436728;1275;140736;-62
2022/10/08 14:49:58;;;;;;;9.80;7.50;;;;;;;17.46;62.48;99433.75;436675;1288;141029;-63
2022/10/08 15:00:05;;;;;;;14.50;10.60;;;;;;;17.27;63.48;99446.64;434504;1288;140931;-63
2022/10/08 15:10:11;;;;;;;15.00;11.30;;;;;;;16.93;66.20;99468.71;436578;1282;153029;-62
2022/10/08 15:20:17;;;;;;;13.80;12.50;;;;;;;16.40;68.62;99472.27;435999;1281;143152;-63
2022/10/08 15:30:23;;;;;;;14.70;12.00;;;;;;;16.10;70.13;99475.95;436714;1282;143990;-65
2022/10/08 15:40:31;;;;;;;13.60;12.20;;;;;;;15.78;70.68;99488.62;436727;1282;145993;-63
2022/10/08 15:50:37;;;;;;;14.40;13.00;;;;;;;15.38;71.69;99499.12;435959;1283;143991;-63
2022/10/08 16:00:43;;;;;;;12.40;11.20;;;;;;;15.12;72.61;99513.98;434370;1281;142217;-62
2022/10/08 16:10:51;;;;;;;14.70;12.80;;;;;;;14.95;73.36;99519.95;434442;1284;143174;-63
2022/10/08 16:21:04;;;;;;;15.10;13.30;;;;;;;14.83;73.98;99531.58;435986;1273;142678;-63
2022/10/08 16:31:10;;;;;;;33.60;30.20;;;;;;;14.64;74.91;99539.54;436735;1278;143174;-63
2022/10/08 16:41:19;;;;;;;22.20;18.90;;;;;;;14.53;75.60;99548.03;436053;1281;142717;-63
2022/10/08 16:51:26;;;;;;;14.40;11.60;;;;;;;14.42;76.07;99557.91;427610;1275;144372;-62
2022/10/08 17:01:33;;;;;;;12.20;10.90;;;;;;;14.24;75.74;99575.02;425253;1281;143717;-62
2022/10/08 17:11:40;;;;;;;9.60;8.40;;;;;;;14.05;75.55;99591.98;435091;1274;143165;-62
2022/10/08 17:21:46;;;;;;;8.70;7.80;;;;;;;13.83;74.43;99606.55;436707;1283;142546;-63
2022/10/08 17:31:51;;;;;;;7.00;6.30;;;;;;;13.58;74.25;99612.80;436706;1280;141353;-63
2022/10/08 17:41:57;;;;;;;9.40;8.40;;;;;;;13.41;74.10;99619.37;435966;1284;143902;-63
2022/10/08 17:52:02;;;;;;;9.20;8.20;;;;;;;13.25;74.33;99634.92;436737;1284;142587;-62
2022/10/08 18:02:09;;;;;;;8.80;6.70;;;;;;;13.18;74.47;99632.30;432349;1281;142966;-62
2022/10/08 18:12:16;;;;;;;9.40;7.80;;;;;;;13.05;74.72;99640.57;431819;1275;212431;-61
2022/10/08 18:22:21;;;;;;;9.00;7.50;;;;;;;12.93;74.78;99643.44;436705;1281;142109;-65
2022/10/08 18:32:27;;;;;;;9.20;7.50;;;;;;;12.87;74.89;99664.61;435991;1284;142693;-62
2022/10/08 18:42:33;;;;;;;11.00;7.90;;;;;;;12.73;75.11;99675.09;436756;1280;142594;-62
2022/10/08 18:52:38;;;;;;;12.90;8.80;;;;;;;12.65;75.30;99681.23;436764;1275;143453;-62
2022/10/08 19:02:44;;;;;;;9.40;7.70;;;;;;;12.58;75.26;99692.05;433443;1282;142688;-62
2022/10/08 19:12:50;;;;;;;12.40;7.80;;;;;;;12.52;74.98;99695.66;436694;1274;144618;-62
2022/10/08 19:22:56;;;;;;;10.10;7.10;;;;;;;12.44;74.82;99713.08;436687;1282;143302;-63
2022/10/08 19:33:02;;;;;;;10.90;8.20;;;;;;;12.36;74.79;99717.86;435987;1282;143491;-65
2022/10/08 19:43:07;;;;;;;12.70;7.60;;;;;;;12.22;74.97;99718.79;436668;1280;143983;-62
2022/10/08 19:53:13;;;;;;;12.10;9.30;;;;;;;12.08;75.29;99729.42;435924;1275;142007;-62
2022/10/08 20:03:19;;;;;;;10.80;8.90;;;;;;;11.98;75.44;99744.23;432698;1282;142460;-63
2022/10/08 20:13:25;;;;;;;13.10;7.90;;;;;;;11.90;75.29;99758.85;433647;1282;143884;-62
2022/10/08 20:23:31;;;;;;;13.20;7.50;;;;;;;11.76;75.18;99762.20;435947;1281;142609;-62
2022/10/08 20:33:36;;;;;;;13.40;8.50;;;;;;;11.83;75.20;99781.90;431515;1281;142117;-62
2022/10/08 20:43:42;;;;;;;11.20;6.70;;;;;;;11.97;75.05;99791.91;434014;1282;142876;-62
2022/10/08 20:53:49;;;;;;;8.70;5.40;;;;;;;12.04;74.82;99795.48;435914;1288;142992;-63
2022/10/08 21:03:56;;;;;;;6.80;5.20;;;;;;;11.99;74.73;99799.64;434369;1281;183755;-63
2022/10/08 21:14:02;;;;;;;9.30;5.20;;;;;;;11.76;74.77;99819.38;436720;1287;142522;-62
2022/10/08 21:24:09;;;;;;;6.40;4.80;;;;;;;11.47;75.00;99830.83;434873;1282;142766;-62
2022/10/08 21:34:14;;;;;;;8.00;5.50;;;;;;;11.16;75.33;99845.23;436700;1284;142740;-62
2022/10/08 21:44:20;;;;;;;10.20;3.30;;;;;;;10.85;75.93;99858.99;435975;1281;142302;-62
2022/10/08 21:54:26;;;;;;;8.50;2.90;;;;;;;10.92;76.42;99867.72;436737;1288;145185;-62
2022/10/08 22:04:32;;;;;;;5.20;2.40;;;;;;;10.97;76.37;99875.65;431027;1281;141968;-62
2022/10/08 22:14:38;;;;;;;5.50;3.10;;;;;;;10.93;76.49;99868.02;435914;1280;142445;-62
2022/10/08 22:24:44;;;;;;;6.30;3.40;;;;;;;10.59;76.75;99878.77;436737;1288;143612;-62
2022/10/08 22:34:49;;;;;;;8.10;3.50;;;;;;;10.24;77.32;99887.44;436577;1283;198924;-62
2022/10/08 22:44:55;;;;;;;10.40;3.90;;;;;;;10.00;78.31;99884.80;435962;1282;143832;-62
2022/10/08 22:55:01;;;;;;;8.40;3.70;;;;;;;9.91;79.00;99892.45;436714;1281;143292;-62
2022/10/08 23:05:08;;;;;;;4.40;3.20;;;;;;;9.87;79.54;99903.85;432379;1286;142621;-63
2022/10/08 23:15:14;;;;;;;8.60;4.10;;;;;;;9.66;80.04;99916.02;436285;1289;144260;-62
2022/10/08 23:25:20;;;;;;;4.70;3.20;;;;;;;9.41;80.51;99929.41;436717;1282;143404;-61
2022/10/08 23:35:25;;;;;;;8.70;3.60;;;;;;;9.15;81.13;99934.27;435933;1287;142016;-62
2022/10/08 23:45:31;;;;;;;6.80;4.10;;;;;;;8.94;81.81;99943.20;436671;1275;142276;-61
2022/10/08 23:55:37;;;;;;;8.80;4.30;;;;;;;8.78;82.25;99952.92;436746;1282;142398;-62
